createdAt,value
2023-03-18T00:01:11.457Z,23.73
2023-03-18T00:03:40.914Z,27.23
2023-03-18T00:06:12.981Z,19.57
2023-03-18T00:08:42.597Z,28.87
2023-03-18T00:11:12.852Z,27.67
2023-03-18T00:13:42.456Z,31.60
2023-03-18T00:16:12.649Z,21.73
2023-03-18T00:18:42.535Z,19.63
2023-03-18T00:21:12.093Z,16.07
2023-03-18T00:23:41.236Z,26.07
2023-03-18T00:26:09.788Z,18.87
2023-03-18T00:28:38.904Z,25.90
2023-03-18T00:31:09.745Z,18.93
2023-03-18T00:33:39.923Z,22.17
2023-03-18T00:36:13.614Z,14.00
2023-03-18T00:38:42.199Z,15.57
2023-03-18T00:41:12.567Z,22.47
2023-03-18T00:43:47.209Z,19.77
2023-03-18T00:46:19.691Z,22.23
2023-03-18T00:48:48.325Z,16.47
2023-03-18T00:51:18.677Z,19.20
2023-03-18T00:53:49.601Z,14.27
2023-03-18T00:56:19.376Z,18.73
2023-03-18T00:58:48.420Z,17.33
2023-03-18T01:01:17.704Z,21.33
2023-03-18T01:03:47.538Z,18.97
2023-03-18T01:06:21.023Z,13.10
2023-03-18T01:08:49.687Z,15.17
2023-03-18T01:11:18.168Z,21.83
2023-03-18T01:13:47.477Z,17.53
2023-03-18T01:16:16.266Z,12.30
2023-03-18T01:18:44.585Z,15.47
2023-03-18T01:21:14.034Z,15.53
2023-03-18T01:23:43.471Z,21.80
2023-03-18T01:26:11.605Z,17.20
2023-03-18T01:28:39.635Z,16.43
2023-03-18T01:31:08.049Z,14.10
2023-03-18T01:33:36.624Z,12.80
2023-03-18T01:36:05.662Z,17.20
2023-03-18T01:38:34.003Z,11.13
2023-03-18T01:41:03.705Z,24.37
2023-03-18T01:43:34.729Z,13.13
2023-03-18T01:46:34.785Z,11.50
2023-03-18T01:49:07.426Z,12.30
2023-03-18T01:51:35.937Z,14.40
2023-03-18T01:54:07.383Z,17.90
2023-03-18T01:56:40.451Z,14.27
2023-03-18T01:59:10.515Z,14.10
2023-03-18T02:01:45.033Z,9.90
2023-03-18T02:06:42.241Z,11.47
2023-03-18T02:09:11.334Z,21.27
2023-03-18T02:11:44.288Z,10.57
2023-03-18T02:14:15.421Z,16.43
2023-03-18T02:16:48.822Z,13.13
2023-03-18T02:19:34.650Z,12.27
2023-03-18T02:22:19.524Z,8.70
2023-03-18T02:24:56.636Z,22.73
2023-03-18T02:27:28.294Z,9.07
2023-03-18T02:29:59.309Z,10.80
2023-03-18T02:32:29.136Z,14.93
2023-03-18T02:34:59.522Z,16.03
2023-03-18T02:37:27.730Z,8.97
2023-03-18T02:39:55.697Z,12.27
2023-03-18T02:42:32.471Z,11.97
2023-03-18T02:45:01.144Z,15.80
2023-03-18T02:47:31.673Z,7.93
2023-03-18T02:49:59.669Z,11.43
2023-03-18T02:52:27.668Z,14.80
2023-03-18T02:54:59.094Z,13.03
2023-03-18T02:57:27.064Z,9.80
2023-03-18T02:59:56.469Z,7.00
2023-03-18T03:02:24.644Z,10.10
2023-03-18T03:04:52.695Z,12.17
2023-03-18T03:07:20.651Z,12.80
2023-03-18T03:09:48.698Z,10.40
2023-03-18T03:12:16.728Z,11.20
2023-03-18T03:14:44.738Z,14.90
2023-03-18T03:17:14.211Z,7.40
2023-03-18T03:19:42.228Z,8.93
2023-03-18T03:22:10.488Z,10.00
2023-03-18T03:24:38.457Z,7.80
2023-03-18T03:27:06.911Z,21.03
2023-03-18T03:29:34.859Z,12.60
2023-03-18T03:32:03.086Z,13.77
2023-03-18T03:34:33.682Z,21.93
2023-03-18T03:37:01.814Z,15.80
2023-03-18T03:39:29.768Z,29.80
2023-03-18T03:41:57.706Z,21.83
2023-03-18T03:44:25.915Z,34.90
2023-03-18T03:46:54.115Z,26.43
2023-03-18T03:49:22.325Z,23.30
2023-03-18T03:51:52.010Z,18.73
2023-03-18T03:54:20.807Z,24.80
2023-03-18T03:56:48.735Z,28.23
2023-03-18T03:59:16.684Z,24.53
2023-03-18T04:01:44.765Z,23.77
2023-03-18T04:04:13.248Z,24.73
2023-03-18T04:06:41.303Z,20.27
2023-03-18T04:09:10.937Z,17.73
2023-03-18T04:11:38.902Z,12.90
2023-03-18T04:14:06.894Z,28.53
2023-03-18T04:16:35.130Z,16.83
2023-03-18T04:19:03.241Z,12.60
2023-03-18T04:21:31.498Z,12.50
2023-03-18T04:23:59.429Z,18.80
2023-03-18T04:26:29.067Z,16.33
2023-03-18T04:28:57.108Z,16.23
2023-03-18T04:31:25.578Z,12.20
2023-03-18T04:33:53.740Z,13.40
2023-03-18T04:36:21.696Z,22.57
2023-03-18T04:38:49.712Z,14.30
2023-03-18T04:41:18.256Z,14.67
2023-03-18T04:43:47.686Z,14.77
2023-03-18T04:46:15.916Z,12.33
2023-03-18T04:48:44.578Z,12.27
2023-03-18T04:51:12.625Z,19.93
2023-03-18T04:53:40.889Z,15.07
2023-03-18T04:56:09.675Z,9.83
2023-03-18T04:58:37.699Z,10.10
2023-03-18T05:01:07.161Z,10.60
2023-03-18T05:03:35.194Z,10.43
2023-03-18T05:06:03.367Z,13.80
2023-03-18T05:08:31.794Z,14.53
2023-03-18T05:10:59.757Z,10.77
2023-03-18T05:13:28.392Z,15.80
2023-03-18T05:15:56.345Z,18.90
2023-03-18T05:18:26.147Z,15.70
2023-03-18T05:20:55.041Z,15.37
2023-03-18T05:23:23.959Z,11.50
2023-03-18T05:25:52.229Z,11.90
2023-03-18T05:28:20.232Z,11.37
2023-03-18T05:30:48.296Z,15.40
2023-03-18T05:33:16.903Z,8.67
2023-03-18T05:35:46.296Z,20.77
2023-03-18T05:38:14.705Z,11.90
2023-03-18T05:40:43.386Z,16.13
2023-03-18T05:43:11.974Z,9.70
2023-03-18T05:45:40.894Z,12.80
2023-03-18T05:48:10.527Z,11.47
2023-03-18T05:50:41.767Z,20.70
2023-03-18T05:53:11.960Z,11.53
2023-03-18T05:55:41.022Z,17.60
2023-03-18T05:58:09.421Z,11.20
2023-03-18T06:00:38.495Z,9.97
2023-03-18T06:03:06.635Z,13.77
2023-03-18T06:05:35.180Z,10.93
2023-03-18T06:08:03.409Z,19.13
2023-03-18T06:10:33.398Z,10.83
2023-03-18T06:13:01.585Z,10.33
2023-03-18T06:15:30.475Z,14.47
2023-03-18T06:17:58.821Z,13.60
2023-03-18T06:20:26.887Z,13.13
2023-03-18T06:22:54.853Z,9.77
2023-03-18T06:25:23.905Z,13.60
2023-03-18T06:27:53.348Z,10.27
2023-03-18T06:30:22.021Z,11.67
2023-03-18T06:32:50.164Z,14.70
2023-03-18T06:35:18.812Z,8.70
2023-03-18T06:37:46.879Z,12.43
2023-03-18T06:40:15.622Z,10.17
2023-03-18T06:42:44.506Z,13.03
2023-03-18T06:45:15.173Z,13.37
2023-03-18T06:47:43.144Z,12.00
2023-03-18T06:50:13.444Z,9.33
2023-03-18T06:52:41.474Z,14.50
2023-03-18T06:55:10.770Z,8.03
2023-03-18T06:57:38.946Z,8.23
2023-03-18T07:00:09.023Z,9.97
2023-03-18T07:02:39.746Z,10.40
2023-03-18T07:05:09.479Z,6.07
2023-03-18T07:07:38.602Z,8.67
2023-03-18T07:10:09.234Z,9.60
2023-03-18T07:12:37.188Z,21.33
2023-03-18T07:15:06.173Z,16.17
2023-03-18T07:17:34.223Z,16.60
2023-03-18T07:20:05.348Z,21.70
2023-03-18T07:22:33.380Z,20.23
2023-03-18T07:25:01.356Z,14.63
2023-03-18T07:27:29.751Z,14.33
2023-03-18T07:29:58.021Z,14.40
2023-03-18T07:32:26.076Z,27.50
2023-03-18T07:34:54.056Z,16.37
2023-03-18T07:37:23.445Z,19.60
2023-03-18T07:39:52.875Z,20.63
2023-03-18T07:42:20.858Z,20.83
2023-03-18T07:44:48.994Z,17.00
2023-03-18T07:47:17.030Z,21.50
2023-03-18T07:49:45.102Z,22.63
2023-03-18T07:52:13.237Z,42.47
2023-03-18T07:54:42.554Z,61.23
2023-03-18T07:57:11.449Z,47.07
2023-03-18T07:59:39.494Z,32.27
2023-03-18T08:02:08.882Z,26.67
2023-03-18T08:04:37.564Z,16.33
2023-03-18T08:07:05.976Z,17.50
2023-03-18T08:09:34.157Z,12.53
2023-03-18T08:12:03.697Z,15.80
2023-03-18T08:14:31.921Z,13.73
2023-03-18T08:16:59.937Z,14.70
2023-03-18T08:19:28.169Z,24.10
2023-03-18T08:21:57.490Z,11.73
2023-03-18T08:24:25.581Z,14.60
2023-03-18T08:26:53.550Z,14.10
2023-03-18T08:29:23.474Z,12.10
2023-03-18T08:31:52.091Z,10.90
2023-03-18T08:34:20.126Z,7.83
2023-03-18T08:36:48.994Z,12.67
2023-03-18T08:39:17.527Z,8.37
2023-03-18T08:41:45.934Z,6.73
2023-03-18T08:44:14.026Z,5.53
2023-03-18T08:46:43.476Z,6.17
2023-03-18T08:49:12.234Z,6.13
2023-03-18T08:51:40.253Z,9.00
2023-03-18T08:54:09.101Z,6.43
2023-03-18T08:56:38.140Z,7.07
2023-03-18T08:59:06.993Z,9.37
2023-03-18T09:01:35.061Z,3.53
2023-03-18T09:04:04.684Z,4.50
2023-03-18T09:06:32.825Z,8.93
2023-03-18T09:09:00.898Z,11.60
2023-03-18T09:11:29.043Z,5.27
2023-03-18T09:13:57.178Z,7.40
2023-03-18T09:16:25.374Z,12.57
2023-03-18T09:18:53.591Z,10.77
2023-03-18T09:21:23.200Z,18.13
2023-03-18T09:23:52.652Z,8.00
2023-03-18T09:26:20.755Z,9.40
2023-03-18T09:28:48.768Z,12.30
2023-03-18T09:31:16.925Z,8.80
2023-03-18T09:33:44.948Z,4.77
2023-03-18T09:36:13.812Z,8.63
2023-03-18T09:38:43.771Z,18.53
2023-03-18T09:41:29.724Z,17.23
2023-03-18T09:44:09.320Z,21.40
2023-03-18T09:46:54.193Z,10.17
2023-03-18T09:49:38.936Z,17.83
2023-03-18T09:52:20.040Z,10.97
2023-03-18T09:54:58.723Z,9.80
2023-03-18T09:57:30.049Z,9.93
2023-03-18T10:00:08.941Z,13.03
2023-03-18T10:02:42.076Z,13.30
2023-03-18T10:05:16.742Z,12.33
2023-03-18T10:07:47.238Z,7.33
2023-03-18T10:10:25.678Z,9.37
2023-03-18T10:13:02.523Z,11.10
2023-03-18T10:15:36.196Z,6.03
2023-03-18T10:18:13.654Z,5.53
2023-03-18T10:20:58.981Z,6.57
2023-03-18T10:23:46.206Z,7.00
2023-03-18T10:26:21.903Z,10.27
2023-03-18T10:29:30.329Z,5.70
2023-03-18T10:32:10.164Z,8.40
2023-03-18T10:34:51.090Z,5.50
2023-03-18T10:37:35.736Z,6.77
2023-03-18T10:40:12.854Z,6.17
2023-03-18T10:42:42.626Z,8.43
2023-03-18T10:45:23.373Z,4.67
2023-03-18T10:47:59.556Z,5.07
2023-03-18T10:50:34.759Z,6.03
2023-03-18T10:53:14.528Z,5.20
2023-03-18T10:55:57.299Z,3.17
2023-03-18T10:58:29.055Z,6.43
2023-03-18T11:00:57.555Z,8.03
2023-03-18T11:03:29.296Z,4.10
2023-03-18T11:06:01.936Z,6.47
2023-03-18T11:08:37.221Z,4.53
2023-03-18T11:11:29.362Z,4.43
2023-03-18T11:13:59.822Z,4.80
2023-03-18T11:16:35.277Z,6.73
2023-03-18T11:19:23.565Z,4.90
2023-03-18T11:22:04.308Z,4.13
2023-03-18T11:24:38.999Z,2.60
2023-03-18T11:27:26.931Z,2.60
2023-03-18T11:30:03.013Z,3.47
2023-03-18T11:32:33.948Z,3.97
2023-03-18T11:35:04.163Z,2.60
2023-03-18T11:37:34.817Z,3.60
2023-03-18T11:40:20.884Z,5.87
2023-03-18T11:42:55.961Z,5.23
2023-03-18T11:45:35.862Z,3.23
2023-03-18T11:48:04.651Z,5.77
2023-03-18T11:50:46.828Z,3.50
2023-03-18T11:53:21.905Z,6.50
2023-03-18T11:55:53.795Z,3.07
2023-03-18T11:59:09.062Z,6.20
2023-03-18T12:01:50.683Z,5.83
2023-03-18T12:04:45.967Z,4.63
2023-03-18T12:07:38.363Z,4.17
2023-03-18T12:10:20.025Z,4.00
2023-03-18T12:13:05.165Z,2.77
2023-03-18T12:15:47.097Z,4.67
2023-03-18T12:18:35.685Z,17.17
2023-03-18T12:21:21.660Z,6.77
2023-03-18T12:24:10.227Z,11.73
2023-03-18T12:26:49.557Z,8.93
2023-03-18T12:29:43.156Z,14.00
2023-03-18T12:32:26.013Z,11.80
2023-03-18T12:35:21.707Z,9.63
2023-03-18T12:38:13.931Z,12.13
2023-03-18T12:40:51.702Z,14.23
2023-03-18T12:43:37.439Z,23.47
2023-03-18T12:46:19.077Z,14.13
2023-03-18T12:48:55.695Z,22.63
2023-03-18T12:51:32.038Z,15.87
2023-03-18T12:54:11.798Z,17.30
2023-03-18T12:56:45.200Z,20.60
2023-03-18T12:59:20.345Z,15.87
2023-03-18T13:02:00.767Z,18.97
2023-03-18T13:04:33.010Z,9.30
2023-03-18T13:07:08.122Z,13.37
2023-03-18T13:09:40.620Z,14.43
2023-03-18T13:12:13.285Z,9.23
2023-03-18T13:14:56.301Z,9.93
2023-03-18T13:17:30.486Z,6.83
2023-03-18T13:20:01.323Z,12.03
2023-03-18T13:22:57.302Z,10.40
2023-03-18T13:25:37.189Z,11.93
2023-03-18T13:28:30.181Z,10.37
2023-03-18T13:31:11.242Z,11.47
2023-03-18T13:34:27.737Z,12.70
2023-03-18T13:37:22.662Z,10.77
2023-03-18T13:40:19.891Z,18.57
2023-03-18T13:42:49.983Z,11.43
2023-03-18T13:45:28.399Z,10.60
2023-03-18T13:47:59.130Z,7.63
2023-03-18T13:50:34.906Z,6.30
2023-03-18T13:53:05.563Z,13.97
2023-03-18T13:55:45.042Z,13.17
2023-03-18T13:58:25.854Z,16.13
2023-03-18T14:01:32.854Z,9.47
2023-03-18T14:04:45.850Z,9.27
2023-03-18T14:07:18.419Z,10.03
2023-03-18T14:09:54.827Z,10.40
2023-03-18T14:12:41.309Z,16.13
2023-03-18T14:15:38.587Z,9.23
2023-03-18T14:18:27.609Z,11.23
2023-03-18T14:21:02.505Z,13.40
2023-03-18T14:23:43.485Z,14.77
2023-03-18T14:26:23.430Z,11.87
2023-03-18T14:28:57.617Z,9.70
2023-03-18T14:31:34.949Z,9.77
2023-03-18T14:34:34.115Z,14.03
2023-03-18T14:37:27.640Z,11.57
2023-03-18T14:40:01.971Z,6.10
2023-03-18T14:42:38.921Z,12.80
2023-03-18T14:45:20.617Z,8.30
2023-03-18T14:47:52.377Z,10.83
2023-03-18T14:50:30.860Z,12.30
2023-03-18T14:53:07.133Z,22.73
2023-03-18T14:55:37.097Z,28.57
2023-03-18T14:58:05.592Z,28.30
2023-03-18T15:00:37.516Z,28.37
2023-03-18T15:03:09.318Z,13.77
2023-03-18T15:05:40.930Z,20.03
2023-03-18T15:08:19.133Z,16.33
2023-03-18T15:10:48.843Z,16.80
2023-03-18T15:13:20.342Z,16.17
2023-03-18T15:15:54.665Z,10.83
2023-03-18T15:18:29.334Z,12.90
2023-03-18T15:21:02.553Z,8.80
2023-03-18T15:23:37.099Z,13.90
2023-03-18T15:26:09.762Z,12.40
2023-03-18T15:28:38.535Z,10.40
2023-03-18T15:31:07.907Z,9.43
2023-03-18T15:33:39.785Z,5.80
2023-03-18T15:36:16.390Z,7.83
2023-03-18T15:38:48.807Z,26.77
2023-03-18T15:41:17.882Z,9.13
2023-03-18T15:43:48.233Z,16.70
2023-03-18T15:46:20.899Z,30.57
2023-03-18T15:48:55.103Z,17.43
2023-03-18T15:51:29.980Z,13.10
2023-03-18T15:54:03.475Z,22.00
2023-03-18T15:56:33.767Z,12.00
2023-03-18T15:59:12.165Z,11.37
2023-03-18T16:01:41.613Z,16.07
2023-03-18T16:04:14.510Z,20.87
2023-03-18T16:06:43.044Z,22.10
2023-03-18T16:09:18.083Z,21.67
2023-03-18T16:11:49.037Z,14.63
2023-03-18T16:14:19.202Z,13.50
2023-03-18T16:16:48.855Z,18.13
2023-03-18T16:19:24.736Z,20.07
2023-03-18T16:21:52.935Z,14.77
2023-03-18T16:24:21.112Z,16.00
2023-03-18T16:26:49.470Z,14.43
2023-03-18T16:29:20.045Z,15.33
2023-03-18T16:31:49.508Z,8.90
2023-03-18T16:34:21.748Z,14.77
2023-03-18T16:36:51.934Z,16.20
2023-03-18T16:39:24.155Z,18.13
2023-03-18T16:41:53.555Z,12.40
2023-03-18T16:44:23.560Z,11.53
2023-03-18T16:46:55.611Z,21.73
2023-03-18T16:49:30.837Z,10.43
2023-03-18T16:51:58.929Z,11.03
2023-03-18T16:54:28.794Z,16.70
2023-03-18T16:56:59.912Z,11.47
2023-03-18T16:59:32.554Z,13.50
2023-03-18T17:02:04.170Z,10.50
2023-03-18T17:04:34.692Z,7.23
2023-03-18T17:07:05.161Z,10.00
2023-03-18T17:09:33.373Z,15.03
2023-03-18T17:12:05.762Z,7.00
2023-03-18T17:14:38.653Z,12.43
2023-03-18T17:17:17.691Z,14.13
2023-03-18T17:19:45.672Z,15.60
2023-03-18T17:22:22.322Z,9.50
2023-03-18T17:24:50.717Z,10.17
2023-03-18T17:27:22.119Z,8.83
2023-03-18T17:29:50.610Z,13.87
2023-03-18T17:32:22.015Z,9.27
2023-03-18T17:34:52.477Z,9.37
2023-03-18T17:37:21.562Z,6.40
2023-03-18T17:39:49.570Z,11.27
2023-03-18T17:42:30.352Z,9.37
2023-03-18T17:45:04.840Z,11.53
2023-03-18T17:47:34.291Z,9.50
2023-03-18T17:50:04.777Z,7.67
2023-03-18T17:52:33.974Z,16.60
2023-03-18T17:55:02.102Z,8.53
2023-03-18T17:57:30.177Z,9.60
2023-03-18T17:59:58.413Z,6.43
2023-03-18T18:02:26.494Z,7.80
2023-03-18T18:04:55.888Z,6.57
2023-03-18T18:07:23.881Z,8.83
2023-03-18T18:09:52.721Z,4.23
2023-03-18T18:12:24.990Z,5.73
2023-03-18T18:14:53.235Z,6.10
2023-03-18T18:17:21.865Z,6.07
2023-03-18T18:19:50.004Z,4.73
2023-03-18T18:22:22.669Z,5.70
2023-03-18T18:24:52.218Z,5.70
2023-03-18T18:27:20.328Z,6.10
2023-03-18T18:29:48.342Z,5.50
2023-03-18T18:32:16.427Z,9.53
2023-03-18T18:34:45.010Z,7.73
2023-03-18T18:37:13.350Z,6.27
2023-03-18T18:39:43.578Z,5.77
2023-03-18T18:42:12.275Z,13.50
2023-03-18T18:44:40.306Z,23.90
2023-03-18T18:47:19.168Z,18.83
2023-03-18T18:49:47.743Z,29.93
2023-03-18T18:52:15.825Z,13.33
2023-03-18T18:54:45.304Z,13.90
2023-03-18T18:57:26.633Z,12.43
2023-03-18T18:59:54.885Z,22.60
2023-03-18T19:02:31.355Z,11.57
2023-03-18T19:04:59.995Z,8.50
2023-03-18T19:07:29.189Z,14.47
2023-03-18T19:09:59.110Z,9.23
2023-03-18T19:12:27.475Z,14.60
2023-03-18T19:14:55.843Z,12.93
2023-03-18T19:17:24.270Z,8.13
2023-03-18T19:19:53.692Z,21.63
2023-03-18T19:22:22.537Z,11.33
2023-03-18T19:24:50.719Z,40.90
2023-03-18T19:27:24.403Z,16.60
2023-03-18T19:29:54.794Z,21.90
2023-03-18T19:32:24.505Z,24.07
2023-03-18T19:34:54.571Z,24.57
2023-03-18T19:37:28.634Z,16.73
2023-03-18T19:39:57.039Z,17.40
2023-03-18T19:42:27.081Z,12.43
2023-03-18T19:44:55.893Z,28.93
2023-03-18T19:47:26.392Z,21.97
2023-03-18T19:49:55.036Z,19.30
2023-03-18T19:52:26.336Z,21.80
2023-03-18T19:54:55.600Z,16.90
2023-03-18T19:57:28.241Z,14.30
2023-03-18T19:59:59.611Z,17.20
2023-03-18T20:02:31.223Z,18.53
2023-03-18T20:05:02.432Z,17.33
2023-03-18T20:07:33.234Z,15.17
2023-03-18T20:10:01.367Z,14.40
2023-03-18T20:12:35.369Z,15.67
2023-03-18T20:15:04.440Z,13.57
2023-03-18T20:17:38.428Z,17.10
2023-03-18T20:20:08.722Z,13.93
2023-03-18T20:22:40.099Z,13.80
2023-03-18T20:25:17.789Z,13.20
2023-03-18T20:27:47.334Z,8.97
2023-03-18T20:30:25.208Z,8.10
2023-03-18T20:32:53.298Z,9.00
2023-03-18T20:35:21.786Z,14.67
2023-03-18T20:37:50.216Z,9.47
2023-03-18T20:40:24.369Z,12.90
2023-03-18T20:42:53.845Z,11.53
2023-03-18T20:45:23.600Z,14.00
2023-03-18T20:47:52.687Z,7.67
2023-03-18T20:50:23.768Z,9.57
2023-03-18T20:52:52.713Z,9.70
2023-03-18T20:55:25.168Z,6.23
2023-03-18T20:57:55.272Z,7.17
2023-03-18T21:00:26.847Z,8.10
2023-03-18T21:02:58.418Z,9.50
2023-03-18T21:05:27.491Z,10.53
2023-03-18T21:07:55.816Z,12.03
2023-03-18T21:10:25.804Z,9.63
2023-03-18T21:12:55.536Z,8.57
2023-03-18T21:15:26.422Z,10.57
2023-03-18T21:17:54.967Z,9.33
2023-03-18T21:20:28.169Z,8.83
2023-03-18T21:22:56.945Z,13.47
2023-03-18T21:25:27.552Z,10.93
2023-03-18T21:27:57.651Z,11.87
2023-03-18T21:30:25.706Z,8.37
2023-03-18T21:32:53.721Z,8.33
2023-03-18T21:35:24.788Z,10.50
2023-03-18T21:37:53.716Z,9.03
2023-03-18T21:40:24.720Z,11.30
2023-03-18T21:42:53.567Z,6.40
2023-03-18T21:45:24.325Z,4.73
2023-03-18T21:47:53.034Z,6.27
2023-03-18T21:50:24.161Z,7.70
2023-03-18T21:52:53.459Z,5.20
2023-03-18T21:55:21.962Z,9.13
2023-03-18T21:57:49.954Z,9.10
2023-03-18T22:00:22.325Z,8.70
2023-03-18T22:02:50.971Z,9.97
2023-03-18T22:05:21.681Z,4.67
2023-03-18T22:07:50.843Z,8.40
2023-03-18T22:10:22.281Z,4.63
2023-03-18T22:12:50.597Z,4.10
2023-03-18T22:15:41.174Z,5.97
2023-03-18T22:18:09.282Z,7.50
2023-03-18T22:20:38.915Z,5.93
2023-03-18T22:23:17.141Z,10.40
2023-03-18T22:25:47.257Z,7.37
2023-03-18T22:28:15.753Z,6.60
2023-03-18T22:30:51.861Z,5.10
2023-03-18T22:33:23.660Z,9.23
2023-03-18T22:35:51.843Z,4.60
2023-03-18T22:38:21.959Z,11.23
2023-03-18T22:40:53.018Z,7.57
2023-03-18T22:43:33.384Z,9.10
2023-03-18T22:46:06.186Z,8.87
2023-03-18T22:48:34.772Z,8.07
2023-03-18T22:51:03.726Z,8.00
2023-03-18T22:53:35.641Z,5.93
2023-03-18T22:56:09.961Z,3.30
2023-03-18T22:58:39.187Z,4.87
2023-03-18T23:01:08.858Z,6.30
2023-03-18T23:03:40.337Z,10.63
2023-03-18T23:06:09.251Z,4.20
2023-03-18T23:08:37.355Z,4.77
2023-03-18T23:11:05.739Z,5.80
2023-03-18T23:13:37.929Z,3.97
2023-03-18T23:16:09.781Z,12.10
2023-03-18T23:18:38.238Z,7.87
2023-03-18T23:21:06.918Z,11.23
2023-03-18T23:23:34.944Z,8.50
2023-03-18T23:26:03.216Z,8.10
2023-03-18T23:28:34.537Z,11.10
2023-03-18T23:31:09.294Z,8.23
2023-03-18T23:33:37.472Z,13.87
2023-03-18T23:36:06.081Z,22.13
2023-03-18T23:38:34.083Z,8.80
2023-03-18T23:41:02.146Z,7.77
2023-03-18T23:43:30.202Z,5.20
2023-03-18T23:45:58.283Z,5.37
2023-03-18T23:48:28.105Z,8.90
2023-03-18T23:50:56.243Z,10.10
2023-03-18T23:53:24.457Z,6.20
2023-03-18T23:55:52.457Z,7.40
2023-03-18T23:58:20.496Z,6.97
